sensor_id;sensor_type;location;lat;lon;timestamp;pressure;altitude;pressure_sealevel;temperature;humidity
73842;BME280;62184;52.006;5.924;2024-03-08T00:00:28;101110.91;;;9.57;46.11
73842;BME280;62184;52.006;5.924;2024-03-08T00:02:54;101108.25;;;9.57;46.08
73842;BME280;62184;52.006;5.924;2024-03-08T00:05:21;101106.53;;;9.54;45.79
73842;BME280;62184;52.006;5.924;2024-03-08T00:07:48;101107.44;;;9.53;45.98
73842;BME280;62184;52.006;5.924;2024-03-08T00:10:14;101108.38;;;9.49;45.83
73842;BME280;62184;52.006;5.924;2024-03-08T00:12:44;101100.41;;;9.46;45.81
73842;BME280;62184;52.006;5.924;2024-03-08T00:15:12;101101.34;;;9.45;45.46
73842;BME280;62184;52.006;5.924;2024-03-08T00:17:40;101092.47;;;9.43;45.53
73842;BME280;62184;52.006;5.924;2024-03-08T00:20:07;101099.66;;;9.38;45.84
73842;BME280;62184;52.006;5.924;2024-03-08T00:22:34;101102.31;;;9.40;45.75
73842;BME280;62184;52.006;5.924;2024-03-08T00:25:01;101103.19;;;9.40;45.57
73842;BME280;62184;52.006;5.924;2024-03-08T00:27:27;101097.84;;;9.40;45.59
73842;BME280;62184;52.006;5.924;2024-03-08T00:29:56;101086.31;;;9.38;45.54
73842;BME280;62184;52.006;5.924;2024-03-08T00:32:22;101088.16;;;9.36;45.38
73842;BME280;62184;52.006;5.924;2024-03-08T00:34:49;101087.28;;;9.34;45.28
73842;BME280;62184;52.006;5.924;2024-03-08T00:37:15;101084.66;;;9.31;45.22
73842;BME280;62184;52.006;5.924;2024-03-08T00:39:42;101089.13;;;9.31;45.31
73842;BME280;62184;52.006;5.924;2024-03-08T00:42:08;101086.44;;;9.31;45.12
73842;BME280;62184;52.006;5.924;2024-03-08T00:44:35;101084.75;;;9.28;45.12
73842;BME280;62184;52.006;5.924;2024-03-08T00:47:04;101087.44;;;9.23;45.21
73842;BME280;62184;52.006;5.924;2024-03-08T00:49:31;101073.25;;;9.21;45.10
73842;BME280;62184;52.006;5.924;2024-03-08T00:51:58;101075.94;;;9.21;45.06
73842;BME280;62184;52.006;5.924;2024-03-08T00:54:24;101080.44;;;9.19;45.19
73842;BME280;62184;52.006;5.924;2024-03-08T00:56:50;101071.53;;;9.20;44.95
73842;BME280;62184;52.006;5.924;2024-03-08T00:59:17;101067.13;;;9.18;44.76
73842;BME280;62184;52.006;5.924;2024-03-08T01:01:43;101062.69;;;9.14;44.92
73842;BME280;62184;52.006;5.924;2024-03-08T01:04:12;101055.69;;;9.07;45.06
73842;BME280;62184;52.006;5.924;2024-03-08T01:06:39;101054.84;;;9.05;45.05
73842;BME280;62184;52.006;5.924;2024-03-08T01:09:05;101053.09;;;9.04;44.90
73842;BME280;62184;52.006;5.924;2024-03-08T01:11:32;101047.78;;;9.02;44.98
73842;BME280;62184;52.006;5.924;2024-03-08T01:13:58;101037.16;;;8.99;45.01
73842;BME280;62184;52.006;5.924;2024-03-08T01:16:24;101034.50;;;8.99;44.98
73842;BME280;62184;52.006;5.924;2024-03-08T01:18:51;101030.06;;;9.00;44.75
73842;BME280;62184;52.006;5.924;2024-03-08T01:21:20;101027.44;;;8.97;44.73
73842;BME280;62184;52.006;5.924;2024-03-08T01:23:47;101031.88;;;8.96;44.60
73842;BME280;62184;52.006;5.924;2024-03-08T01:26:13;101026.59;;;8.95;44.58
73842;BME280;62184;52.006;5.924;2024-03-08T01:28:39;101016.00;;;8.88;44.55
73842;BME280;62184;52.006;5.924;2024-03-08T01:31:06;101022.31;;;8.84;44.68
73842;BME280;62184;52.006;5.924;2024-03-08T01:33:32;101017.91;;;8.80;44.85
73842;BME280;62184;52.006;5.924;2024-03-08T01:35:59;101006.44;;;8.78;44.57
73842;BME280;62184;52.006;5.924;2024-03-08T01:38:28;101008.25;;;8.75;44.52
73842;BME280;62184;52.006;5.924;2024-03-08T01:40:54;100996.75;;;8.71;44.68
73842;BME280;62184;52.006;5.924;2024-03-08T01:43:22;101003.00;;;8.70;44.64
73842;BME280;62184;52.006;5.924;2024-03-08T01:45:52;101004.78;;;8.68;44.62
73842;BME280;62184;52.006;5.924;2024-03-08T01:48:20;100996.84;;;8.65;44.57
73842;BME280;62184;52.006;5.924;2024-03-08T01:50:47;100995.06;;;8.64;44.60
73842;BME280;62184;52.006;5.924;2024-03-08T01:53:13;101003.13;;;8.61;44.71
73842;BME280;62184;52.006;5.924;2024-03-08T01:55:45;101007.56;;;8.61;44.76
73842;BME280;62184;52.006;5.924;2024-03-08T01:58:13;100999.63;;;8.58;44.80
73842;BME280;62184;52.006;5.924;2024-03-08T02:00:42;100996.97;;;8.56;44.56
73842;BME280;62184;52.006;5.924;2024-03-08T02:03:10;100994.28;;;8.58;44.69
73842;BME280;62184;52.006;5.924;2024-03-08T02:05:37;100995.28;;;8.52;44.57
73842;BME280;62184;52.006;5.924;2024-03-08T02:08:06;100992.63;;;8.50;44.76
73842;BME280;62184;52.006;5.924;2024-03-08T02:10:34;100983.75;;;8.50;44.74
73842;BME280;62184;52.006;5.924;2024-03-08T02:13:04;100985.53;;;8.49;44.71
73842;BME280;62184;52.006;5.924;2024-03-08T02:15:51;100985.56;;;8.48;44.46
73842;BME280;62184;52.006;5.924;2024-03-08T02:18:19;100983.84;;;8.44;44.92
73842;BME280;62184;52.006;5.924;2024-03-08T02:20:49;100979.44;;;8.40;44.60
73842;BME280;62184;52.006;5.924;2024-03-08T02:23:17;100979.53;;;8.35;44.83
73842;BME280;62184;52.006;5.924;2024-03-08T02:25:44;100974.22;;;8.35;44.81
73842;BME280;62184;52.006;5.924;2024-03-08T02:28:11;100974.19;;;8.37;44.87
73842;BME280;62184;52.006;5.924;2024-03-08T02:30:38;100966.22;;;8.37;44.72
73842;BME280;62184;52.006;5.924;2024-03-08T02:33:05;100969.72;;;8.37;44.78
73842;BME280;62184;52.006;5.924;2024-03-08T02:35:32;100968.00;;;8.36;44.86
73842;BME280;62184;52.006;5.924;2024-03-08T02:38:02;100962.72;;;8.32;44.68
73842;BME280;62184;52.006;5.924;2024-03-08T02:40:30;100958.31;;;8.29;44.65
73842;BME280;62184;52.006;5.924;2024-03-08T02:42:56;100954.75;;;8.30;44.72
73842;BME280;62184;52.006;5.924;2024-03-08T02:45:23;100949.47;;;8.29;44.65
73842;BME280;62184;52.006;5.924;2024-03-08T02:47:49;100945.97;;;8.25;44.91
73842;BME280;62184;52.006;5.924;2024-03-08T02:50:16;100951.84;;;8.47;44.41
73842;BME280;62184;52.006;5.924;2024-03-08T02:52:42;100942.94;;;8.51;44.10
73842;BME280;62184;52.006;5.924;2024-03-08T02:55:12;100942.06;;;8.49;44.12
73842;BME280;62184;52.006;5.924;2024-03-08T02:57:38;100939.44;;;8.46;44.34
73842;BME280;62184;52.006;5.924;2024-03-08T03:00:07;100937.66;;;8.46;44.25
73842;BME280;62184;52.006;5.924;2024-03-08T03:02:34;100927.97;;;8.42;44.38
73842;BME280;62184;52.006;5.924;2024-03-08T03:05:01;100933.31;;;8.41;44.36
73842;BME280;62184;52.006;5.924;2024-03-08T03:07:27;100931.53;;;8.41;44.18
73842;BME280;62184;52.006;5.924;2024-03-08T03:09:54;100927.13;;;8.39;44.33
73842;BME280;62184;52.006;5.924;2024-03-08T03:12:23;100930.66;;;8.41;44.16
73842;BME280;62184;52.006;5.924;2024-03-08T03:14:49;100925.31;;;8.41;44.23
73842;BME280;62184;52.006;5.924;2024-03-08T03:17:16;100920.84;;;8.44;44.08
73842;BME280;62184;52.006;5.924;2024-03-08T03:19:42;100915.53;;;8.44;44.12
73842;BME280;62184;52.006;5.924;2024-03-08T03:22:09;100919.13;;;8.40;44.06
73842;BME280;62184;52.006;5.924;2024-03-08T03:24:35;100920.09;;;8.35;44.17
73842;BME280;62184;52.006;5.924;2024-03-08T03:27:02;100922.75;;;8.36;44.05
73842;BME280;62184;52.006;5.924;2024-03-08T03:29:31;100913.84;;;8.37;43.94
73842;BME280;62184;52.006;5.924;2024-03-08T03:31:57;100913.03;;;8.32;44.13
73842;BME280;62184;52.006;5.924;2024-03-08T03:34:23;100913.06;;;8.31;44.05
73842;BME280;62184;52.006;5.924;2024-03-08T03:36:50;100904.19;;;8.30;44.20
73842;BME280;62184;52.006;5.924;2024-03-08T03:39:16;100907.72;;;8.31;44.12
73842;BME280;62184;52.006;5.924;2024-03-08T03:41:43;100905.97;;;8.30;44.02
73842;BME280;62184;52.006;5.924;2024-03-08T03:44:09;100905.16;;;8.26;44.26
73842;BME280;62184;52.006;5.924;2024-03-08T03:46:41;100911.38;;;8.24;44.25
73842;BME280;62184;52.006;5.924;2024-03-08T03:49:07;100906.94;;;8.24;44.15
73842;BME280;62184;52.006;5.924;2024-03-08T03:51:34;100907.84;;;8.22;44.23
73842;BME280;62184;52.006;5.924;2024-03-08T03:54:00;100894.63;;;8.17;44.32
73842;BME280;62184;52.006;5.924;2024-03-08T03:56:27;100897.28;;;8.19;44.25
73842;BME280;62184;52.006;5.924;2024-03-08T03:58:53;100902.59;;;8.20;44.12
73842;BME280;62184;52.006;5.924;2024-03-08T04:01:19;100896.38;;;8.20;44.19
73842;BME280;62184;52.006;5.924;2024-03-08T04:03:48;100901.72;;;8.18;44.12
73842;BME280;62184;52.006;5.924;2024-03-08T04:06:15;100899.97;;;8.17;44.48
73842;BME280;62184;52.006;5.924;2024-03-08T04:08:41;100895.53;;;8.14;44.23
73842;BME280;62184;52.006;5.924;2024-03-08T04:11:08;100895.53;;;8.14;44.41
73842;BME280;62184;52.006;5.924;2024-03-08T04:13:34;100888.44;;;8.17;44.21
73842;BME280;62184;52.006;5.924;2024-03-08T04:16:01;100891.13;;;8.13;44.19
73842;BME280;62184;52.006;5.924;2024-03-08T04:18:27;100891.13;;;8.13;44.26
73842;BME280;62184;52.006;5.924;2024-03-08T04:20:56;100883.13;;;8.13;44.18
73842;BME280;62184;52.006;5.924;2024-03-08T04:23:22;100883.13;;;8.15;44.19
73842;BME280;62184;52.006;5.924;2024-03-08T04:25:49;100880.47;;;8.15;44.13
73842;BME280;62184;52.006;5.924;2024-03-08T04:28:15;100877.81;;;8.13;44.20
73842;BME280;62184;52.006;5.924;2024-03-08T04:30:42;100876.09;;;8.11;44.34
73842;BME280;62184;52.006;5.924;2024-03-08T04:33:08;100873.59;;;8.00;44.37
73842;BME280;62184;52.006;5.924;2024-03-08T04:35:34;100868.19;;;8.06;44.16
73842;BME280;62184;52.006;5.924;2024-03-08T04:38:03;100874.34;;;8.08;44.30
73842;BME280;62184;52.006;5.924;2024-03-08T04:40:30;100872.59;;;8.09;44.29
73842;BME280;62184;52.006;5.924;2024-03-08T04:42:58;100869.94;;;8.07;44.21
73842;BME280;62184;52.006;5.924;2024-03-08T04:45:25;100865.53;;;8.05;44.07
73842;BME280;62184;52.006;5.924;2024-03-08T04:47:51;100863.75;;;8.05;44.21
73842;BME280;62184;52.006;5.924;2024-03-08T04:50:18;100862.84;;;8.06;44.22
73842;BME280;62184;52.006;5.924;2024-03-08T04:52:44;100864.66;;;8.04;44.22
73842;BME280;62184;52.006;5.924;2024-03-08T04:55:13;100857.59;;;8.03;44.23
73842;BME280;62184;52.006;5.924;2024-03-08T04:57:40;100856.66;;;8.04;44.32
73842;BME280;62184;52.006;5.924;2024-03-08T05:00:07;100855.78;;;8.05;44.34
73842;BME280;62184;52.006;5.924;2024-03-08T05:02:35;100854.88;;;8.06;44.29
73842;BME280;62184;52.006;5.924;2024-03-08T05:05:01;100857.53;;;8.08;44.19
73842;BME280;62184;52.006;5.924;2024-03-08T05:07:27;100857.50;;;8.09;44.09
73842;BME280;62184;52.006;5.924;2024-03-08T05:09:54;100851.31;;;8.07;44.09
73842;BME280;62184;52.006;5.924;2024-03-08T05:12:23;100852.22;;;8.06;43.87
73842;BME280;62184;52.006;5.924;2024-03-08T05:14:49;100852.22;;;8.05;44.20
73842;BME280;62184;52.006;5.924;2024-03-08T05:17:16;100848.69;;;8.04;44.07
73842;BME280;62184;52.006;5.924;2024-03-08T05:19:42;100850.47;;;8.04;44.21
73842;BME280;62184;52.006;5.924;2024-03-08T05:22:09;100843.38;;;8.04;44.22
73842;BME280;62184;52.006;5.924;2024-03-08T05:24:35;100843.34;;;8.07;44.09
73842;BME280;62184;52.006;5.924;2024-03-08T05:27:02;100839.78;;;8.07;43.97
73842;BME280;62184;52.006;5.924;2024-03-08T05:29:31;100839.81;;;8.04;44.31
73842;BME280;62184;52.006;5.924;2024-03-08T05:31:58;100843.44;;;8.00;44.19
73842;BME280;62184;52.006;5.924;2024-03-08T05:34:24;100846.97;;;8.02;44.15
73842;BME280;62184;52.006;5.924;2024-03-08T05:36:51;100842.50;;;8.04;44.16
73842;BME280;62184;52.006;5.924;2024-03-08T05:39:18;100836.34;;;8.02;44.11
73842;BME280;62184;52.006;5.924;2024-03-08T05:41:45;100845.22;;;8.01;43.92
73842;BME280;62184;52.006;5.924;2024-03-08T05:44:12;100839.81;;;8.04;43.91
73842;BME280;62184;52.006;5.924;2024-03-08T05:46:42;100831.03;;;8.00;44.10
73842;BME280;62184;52.006;5.924;2024-03-08T05:49:09;100830.22;;;7.95;44.08
73842;BME280;62184;52.006;5.924;2024-03-08T05:51:36;100832.03;;;7.93;44.28
73842;BME280;62184;52.006;5.924;2024-03-08T05:54:05;100824.06;;;7.92;44.24
73842;BME280;62184;52.006;5.924;2024-03-08T05:56:33;100825.84;;;7.90;44.09
73842;BME280;62184;52.006;5.924;2024-03-08T05:58:59;100826.78;;;7.87;44.20
73842;BME280;62184;52.006;5.924;2024-03-08T06:01:26;100824.16;;;7.86;44.35
73842;BME280;62184;52.006;5.924;2024-03-08T06:03:57;100825.03;;;7.86;44.36
73842;BME280;62184;52.006;5.924;2024-03-08T06:06:24;100823.25;;;7.87;44.20
73842;BME280;62184;52.006;5.924;2024-03-08T06:08:50;100824.19;;;7.84;44.23
73842;BME280;62184;52.006;5.924;2024-03-08T06:11:18;100820.63;;;7.84;44.30
73842;BME280;62184;52.006;5.924;2024-03-08T06:13:45;100819.75;;;7.85;44.38
73842;BME280;62184;52.006;5.924;2024-03-08T06:16:12;100812.59;;;7.88;44.31
73842;BME280;62184;52.006;5.924;2024-03-08T06:18:38;100815.25;;;7.88;44.21
73842;BME280;62184;52.006;5.924;2024-03-08T06:21:08;100815.28;;;7.87;44.14
73842;BME280;62184;52.006;5.924;2024-03-08T06:23:35;100817.91;;;7.88;44.57
73842;BME280;62184;52.006;5.924;2024-03-08T06:26:01;100809.03;;;7.88;44.36
73842;BME280;62184;52.006;5.924;2024-03-08T06:28:28;100811.69;;;7.88;44.46
73842;BME280;62184;52.006;5.924;2024-03-08T06:30:54;100800.16;;;7.90;44.26
73842;BME280;62184;52.006;5.924;2024-03-08T06:33:21;100804.50;;;7.96;44.35
73842;BME280;62184;52.006;5.924;2024-03-08T06:35:47;100808.88;;;7.98;44.28
73842;BME280;62184;52.006;5.924;2024-03-08T06:38:16;100808.91;;;7.97;44.30
73842;BME280;62184;52.006;5.924;2024-03-08T06:40:42;100802.69;;;7.98;44.47
73842;BME280;62184;52.006;5.924;2024-03-08T06:43:09;100803.47;;;8.04;44.57
73842;BME280;62184;52.006;5.924;2024-03-08T06:45:35;100813.19;;;8.08;44.32
73842;BME280;62184;52.006;5.924;2024-03-08T06:48:02;100807.75;;;8.14;44.26
73842;BME280;62184;52.006;5.924;2024-03-08T06:50:29;100798.78;;;8.22;44.02
73842;BME280;62184;52.006;5.924;2024-03-08T06:52:55;100801.47;;;8.20;44.06
73842;BME280;62184;52.006;5.924;2024-03-08T06:55:24;100795.28;;;8.20;44.24
73842;BME280;62184;52.006;5.924;2024-03-08T06:57:50;100796.97;;;8.24;44.18
73842;BME280;62184;52.006;5.924;2024-03-08T07:00:17;100796.06;;;8.25;44.11
73842;BME280;62184;52.006;5.924;2024-03-08T07:02:44;100795.13;;;8.29;44.12
73842;BME280;62184;52.006;5.924;2024-03-08T07:05:10;100794.13;;;8.36;44.09
73842;BME280;62184;52.006;5.924;2024-03-08T07:07:37;100794.00;;;8.42;44.04
73842;BME280;62184;52.006;5.924;2024-03-08T07:10:04;100792.13;;;8.48;43.96
73842;BME280;62184;52.006;5.924;2024-03-08T07:12:33;100791.03;;;8.60;43.68
73842;BME280;62184;52.006;5.924;2024-03-08T07:15:00;100790.06;;;8.64;43.59
73842;BME280;62184;52.006;5.924;2024-03-08T07:17:26;100797.00;;;8.74;43.60
73842;BME280;62184;52.006;5.924;2024-03-08T07:19:52;100793.31;;;8.81;43.37
73842;BME280;62184;52.006;5.924;2024-03-08T07:22:19;100790.59;;;8.84;43.33
73842;BME280;62184;52.006;5.924;2024-03-08T07:24:45;100791.47;;;8.86;43.23
73842;BME280;62184;52.006;5.924;2024-03-08T07:27:12;100792.28;;;8.88;43.27
73842;BME280;62184;52.006;5.924;2024-03-08T07:29:40;100790.44;;;8.92;43.24
73842;BME280;62184;52.006;5.924;2024-03-08T07:32:07;100788.50;;;9.02;43.08
73842;BME280;62184;52.006;5.924;2024-03-08T07:34:33;100786.63;;;9.05;43.11
73842;BME280;62184;52.006;5.924;2024-03-08T07:37:00;100779.41;;;9.12;42.88
73842;BME280;62184;52.006;5.924;2024-03-08T07:39:26;100781.22;;;9.11;43.02
73842;BME280;62184;52.006;5.924;2024-03-08T07:41:52;100775.78;;;9.14;42.91
73842;BME280;62184;52.006;5.924;2024-03-08T07:44:19;100771.31;;;9.16;43.01
73842;BME280;62184;52.006;5.924;2024-03-08T07:46:48;100773.97;;;9.19;42.83
73842;BME280;62184;52.006;5.924;2024-03-08T07:49:14;100776.38;;;9.30;42.80
73842;BME280;62184;52.006;5.924;2024-03-08T07:51:41;100764.84;;;9.30;42.58
73842;BME280;62184;52.006;5.924;2024-03-08T07:54:07;100762.09;;;9.34;42.82
73842;BME280;62184;52.006;5.924;2024-03-08T07:56:33;100760.28;;;9.36;42.71
73842;BME280;62184;52.006;5.924;2024-03-08T07:59:00;100765.53;;;9.39;42.87
73842;BME280;62184;52.006;5.924;2024-03-08T08:01:26;100766.31;;;9.46;42.88
73842;BME280;62184;52.006;5.924;2024-03-08T08:03:58;100756.44;;;9.49;42.71
73842;BME280;62184;52.006;5.924;2024-03-08T08:06:25;100756.44;;;9.49;42.65
73842;BME280;62184;52.006;5.924;2024-03-08T08:08:51;100745.56;;;9.58;42.46
73842;BME280;62184;52.006;5.924;2024-03-08T08:11:17;100751.66;;;9.63;42.34
73842;BME280;62184;52.006;5.924;2024-03-08T08:13:44;100748.78;;;9.74;42.40
73842;BME280;62184;52.006;5.924;2024-03-08T08:16:10;100748.41;;;9.89;42.28
73842;BME280;62184;52.006;5.924;2024-03-08T08:18:37;100747.28;;;9.99;41.89
73842;BME280;62184;52.006;5.924;2024-03-08T08:21:06;100743.66;;;10.02;42.12
73842;BME280;62184;52.006;5.924;2024-03-08T08:23:32;100732.06;;;10.05;41.64
73842;BME280;62184;52.006;5.924;2024-03-08T08:25:59;100733.84;;;10.04;42.02
73842;BME280;62184;52.006;5.924;2024-03-08T08:28:25;100725.56;;;10.15;41.79
73842;BME280;62184;52.006;5.924;2024-03-08T08:30:51;100724.59;;;10.17;41.58
73842;BME280;62184;52.006;5.924;2024-03-08T08:33:18;100714.66;;;10.24;41.94
73842;BME280;62184;52.006;5.924;2024-03-08T08:35:44;100723.13;;;10.39;41.81
73842;BME280;62184;52.006;5.924;2024-03-08T08:38:13;100718.63;;;10.41;41.66
73842;BME280;62184;52.006;5.924;2024-03-08T08:40:40;100714.19;;;10.42;41.78
73842;BME280;62184;52.006;5.924;2024-03-08T08:43:06;100713.91;;;10.53;41.47
73842;BME280;62184;52.006;5.924;2024-03-08T08:45:33;100710.16;;;10.60;41.85
73842;BME280;62184;52.006;5.924;2024-03-08T08:47:59;100700.13;;;10.68;41.70
73842;BME280;62184;52.006;5.924;2024-03-08T08:50:26;100705.28;;;10.75;41.44
73842;BME280;62184;52.006;5.924;2024-03-08T08:52:52;100692.66;;;10.81;41.09
73842;BME280;62184;52.006;5.924;2024-03-08T08:55:22;100701.31;;;10.90;41.51
73842;BME280;62184;52.006;5.924;2024-03-08T08:57:48;100699.13;;;11.04;40.95
73842;BME280;62184;52.006;5.924;2024-03-08T09:00:15;100695.22;;;11.16;41.31
73842;BME280;62184;52.006;5.924;2024-03-08T09:02:42;100686.91;;;11.25;40.80
73842;BME280;62184;52.006;5.924;2024-03-08T09:05:08;100695.31;;;11.42;41.13
73842;BME280;62184;52.006;5.924;2024-03-08T09:07:35;100682.13;;;11.64;40.86
73842;BME280;62184;52.006;5.924;2024-03-08T09:10:01;100679.91;;;11.78;40.78
73842;BME280;62184;52.006;5.924;2024-03-08T09:12:31;100673.34;;;11.88;40.48
73842;BME280;62184;52.006;5.924;2024-03-08T09:14:57;100670.22;;;12.01;40.25
73842;BME280;62184;52.006;5.924;2024-03-08T09:17:24;100666.41;;;12.08;40.01
73842;BME280;62184;52.006;5.924;2024-03-08T09:19:50;100666.59;;;12.29;40.05
73842;BME280;62184;52.006;5.924;2024-03-08T09:22:17;100659.50;;;12.28;39.01
73842;BME280;62184;52.006;5.924;2024-03-08T09:24:43;100655.81;;;12.31;39.45
73842;BME280;62184;52.006;5.924;2024-03-08T09:27:10;100661.97;;;12.35;39.48
73842;BME280;62184;52.006;5.924;2024-03-08T09:29:38;100654.25;;;12.50;39.50
73842;BME280;62184;52.006;5.924;2024-03-08T09:32:05;100645.66;;;12.65;39.56
73842;BME280;62184;52.006;5.924;2024-03-08T09:34:32;100647.72;;;12.82;39.32
73842;BME280;62184;52.006;5.924;2024-03-08T09:36:58;100623.97;;;12.96;39.11
73842;BME280;62184;52.006;5.924;2024-03-08T09:39:24;100624.47;;;13.06;38.20
73842;BME280;62184;52.006;5.924;2024-03-08T09:41:51;100622.53;;;13.10;38.92
73842;BME280;62184;52.006;5.924;2024-03-08T09:44:17;100616.22;;;13.34;39.04
73842;BME280;62184;52.006;5.924;2024-03-08T09:46:46;100610.78;;;13.59;38.67
73842;BME280;62184;52.006;5.924;2024-03-08T09:49:13;100615.50;;;13.74;37.92
73842;BME280;62184;52.006;5.924;2024-03-08T09:51:40;100607.38;;;13.75;37.46
73842;BME280;62184;52.006;5.924;2024-03-08T09:54:06;100605.59;;;13.76;37.39
73842;BME280;62184;52.006;5.924;2024-03-08T09:56:34;100605.41;;;13.80;37.60
73842;BME280;62184;52.006;5.924;2024-03-08T09:59:02;100597.75;;;13.92;37.58
73842;BME280;62184;52.006;5.924;2024-03-08T10:01:28;100595.56;;;14.01;37.37
73842;BME280;62184;52.006;5.924;2024-03-08T10:03:57;100596.44;;;14.02;37.02
73842;BME280;62184;52.006;5.924;2024-03-08T10:06:24;100586.34;;;14.07;36.64
73842;BME280;62184;52.006;5.924;2024-03-08T10:08:50;100583.03;;;14.22;36.47
73842;BME280;62184;52.006;5.924;2024-03-08T10:11:17;100581.25;;;14.41;36.60
73842;BME280;62184;52.006;5.924;2024-03-08T10:13:44;100586.06;;;14.55;36.55
73842;BME280;62184;52.006;5.924;2024-03-08T10:16:11;100575.41;;;14.72;36.38
73842;BME280;62184;52.006;5.924;2024-03-08T10:18:38;100576.69;;;14.82;36.28
73842;BME280;62184;52.006;5.924;2024-03-08T10:21:08;100567.16;;;14.75;35.95
73842;BME280;62184;52.006;5.924;2024-03-08T10:23:35;100569.09;;;14.73;35.90
73842;BME280;62184;52.006;5.924;2024-03-08T10:26:12;100562.53;;;14.79;35.77
73842;BME280;62184;52.006;5.924;2024-03-08T10:28:40;100565.38;;;14.94;35.62
73842;BME280;62184;52.006;5.924;2024-03-08T10:31:07;100556.88;;;15.04;35.27
73842;BME280;62184;52.006;5.924;2024-03-08T10:33:33;100546.47;;;15.15;35.11
73842;BME280;62184;52.006;5.924;2024-03-08T10:36:00;100543.31;;;15.24;34.91
73842;BME280;62184;52.006;5.924;2024-03-08T10:38:31;100551.75;;;15.35;34.76
73842;BME280;62184;52.006;5.924;2024-03-08T10:40:58;100540.78;;;15.40;35.25
73842;BME280;62184;52.006;5.924;2024-03-08T10:43:25;100540.66;;;15.41;34.89
73842;BME280;62184;52.006;5.924;2024-03-08T10:45:56;100538.19;;;15.55;34.76
73842;BME280;62184;52.006;5.924;2024-03-08T10:48:37;100533.94;;;15.68;34.92
73842;BME280;62184;52.006;5.924;2024-03-08T10:51:11;100523.31;;;15.65;35.01
73842;BME280;62184;52.006;5.924;2024-03-08T10:53:41;100530.97;;;15.56;34.35
73842;BME280;62184;52.006;5.924;2024-03-08T10:56:08;100516.28;;;15.63;34.47
73842;BME280;62184;52.006;5.924;2024-03-08T10:58:36;100518.19;;;15.78;34.69
73842;BME280;62184;52.006;5.924;2024-03-08T11:01:04;100518.25;;;15.94;34.46
73842;BME280;62184;52.006;5.924;2024-03-08T11:03:46;100505.41;;;15.99;34.84
73842;BME280;62184;52.006;5.924;2024-03-08T11:06:16;100498.78;;;16.06;35.25
73842;BME280;62184;52.006;5.924;2024-03-08T11:08:46;100485.09;;;16.26;34.53
73842;BME280;62184;52.006;5.924;2024-03-08T11:11:27;100483.47;;;16.24;33.77
73842;BME280;62184;52.006;5.924;2024-03-08T11:13:55;100475.97;;;16.29;34.11
73842;BME280;62184;52.006;5.924;2024-03-08T11:16:38;100476.00;;;16.44;34.34
73842;BME280;62184;52.006;5.924;2024-03-08T11:19:06;100472.34;;;16.63;33.76
73842;BME280;62184;52.006;5.924;2024-03-08T11:21:57;100462.66;;;16.74;33.06
73842;BME280;62184;52.006;5.924;2024-03-08T11:24:27;100454.19;;;16.82;32.61
73842;BME280;62184;52.006;5.924;2024-03-08T11:26:57;100463.03;;;16.84;32.71
73842;BME280;62184;52.006;5.924;2024-03-08T11:29:33;100462.50;;;16.93;32.84
73842;BME280;62184;52.006;5.924;2024-03-08T11:32:04;100448.91;;;17.10;32.56
73842;BME280;62184;52.006;5.924;2024-03-08T11:34:31;100446.09;;;17.28;33.17
73842;BME280;62184;52.006;5.924;2024-03-08T11:36:58;100428.50;;;17.36;32.55
73842;BME280;62184;52.006;5.924;2024-03-08T11:39:28;100425.56;;;17.25;32.71
73842;BME280;62184;52.006;5.924;2024-03-08T11:41:55;100425.47;;;17.27;32.41
73842;BME280;62184;52.006;5.924;2024-03-08T11:44:26;100424.91;;;17.36;32.50
73842;BME280;62184;52.006;5.924;2024-03-08T11:46:53;100428.81;;;17.46;31.70
73842;BME280;62184;52.006;5.924;2024-03-08T11:49:19;100424.38;;;17.45;31.35
73842;BME280;62184;52.006;5.924;2024-03-08T11:51:46;100417.41;;;17.56;31.15
73842;BME280;62184;52.006;5.924;2024-03-08T11:54:13;100415.47;;;17.58;30.81
73842;BME280;62184;52.006;5.924;2024-03-08T11:56:42;100396.91;;;17.52;31.26
73842;BME280;62184;52.006;5.924;2024-03-08T11:59:11;100403.84;;;17.72;30.80
73842;BME280;62184;52.006;5.924;2024-03-08T12:01:38;100396.69;;;17.85;30.90
73842;BME280;62184;52.006;5.924;2024-03-08T12:04:04;100390.56;;;17.98;30.67
73842;BME280;62184;52.006;5.924;2024-03-08T12:06:37;100395.38;;;18.07;30.47
73842;BME280;62184;52.006;5.924;2024-03-08T12:09:08;100397.50;;;18.16;29.81
73842;BME280;62184;52.006;5.924;2024-03-08T12:11:35;100389.84;;;18.08;29.55
73842;BME280;62184;52.006;5.924;2024-03-08T12:14:04;100393.44;;;17.94;29.66
73842;BME280;62184;52.006;5.924;2024-03-08T12:16:30;100385.22;;;17.96;29.37
73842;BME280;62184;52.006;5.924;2024-03-08T12:18:57;100384.84;;;18.02;29.69
73842;BME280;62184;52.006;5.924;2024-03-08T12:21:26;100369.38;;;18.18;29.62
73842;BME280;62184;52.006;5.924;2024-03-08T12:24:03;100368.53;;;18.18;29.33
73842;BME280;62184;52.006;5.924;2024-03-08T12:26:31;100362.06;;;18.06;28.85
73842;BME280;62184;52.006;5.924;2024-03-08T12:29:17;100358.31;;;17.80;29.56
73842;BME280;62184;52.006;5.924;2024-03-08T12:31:46;100370.84;;;17.81;29.17
73842;BME280;62184;52.006;5.924;2024-03-08T12:34:13;100354.81;;;17.78;29.15
73842;BME280;62184;52.006;5.924;2024-03-08T12:36:44;100347.09;;;17.86;29.05
73842;BME280;62184;52.006;5.924;2024-03-08T12:39:12;100342.88;;;17.82;28.82
73842;BME280;62184;52.006;5.924;2024-03-08T12:41:39;100337.19;;;17.87;28.92
73842;BME280;62184;52.006;5.924;2024-03-08T12:44:06;100334.38;;;18.03;29.16
73842;BME280;62184;52.006;5.924;2024-03-08T12:46:35;100337.63;;;18.22;29.45
73842;BME280;62184;52.006;5.924;2024-03-08T12:49:02;100330.53;;;18.33;29.26
73842;BME280;62184;52.006;5.924;2024-03-08T12:51:28;100341.25;;;18.35;29.12
73842;BME280;62184;52.006;5.924;2024-03-08T12:53:54;100338.19;;;18.27;29.08
73842;BME280;62184;52.006;5.924;2024-03-08T12:56:29;100326.44;;;18.14;28.85
73842;BME280;62184;52.006;5.924;2024-03-08T12:58:57;100320.75;;;18.04;29.37